sensor_id;sensor_type;location;lat;lon;timestamp;P1;durP1;ratioP1;P2;durP2;ratioP2
26177;SDS011;13924;47.670;10.310;2023-03-01T00:00:38;77.6;;;32.8;;
26177;SDS011;13924;47.670;10.310;2023-03-01T00:15:39;77.2;;;32.3;;
26177;SDS011;13924;47.670;10.310;2023-03-01T00:30:42;76.5;;;32.5;;
26177;SDS011;13924;47.670;10.310;2023-03-01T00:45:40;81.4;;;35.2;;
26177;SDS011;13924;47.670;10.310;2023-03-01T01:00:41;89.2;;;38.9;;
26177;SDS011;13924;47.670;10.310;2023-03-01T01:15:41;101.3;;;40.4;;
26177;SDS011;13924;47.670;10.310;2023-03-01T01:30:42;96.1;;;40.6;;
26177;SDS011;13924;47.670;10.310;2023-03-01T01:45:42;90.1;;;38.2;;
26177;SDS011;13924;47.670;10.310;2023-03-01T02:00:47;94.4;;;37.7;;
26177;SDS011;13924;47.670;10.310;2023-03-01T02:01:29;91.0;;;40.7;;
26177;SDS011;13924;47.670;10.310;2023-03-01T02:15:44;82.2;;;35.1;;
26177;SDS011;13924;47.670;10.310;2023-03-01T02:30:45;83.5;;;34.9;;
26177;SDS011;13924;47.670;10.310;2023-03-01T02:45:49;79.8;;;34.8;;
26177;SDS011;13924;47.670;10.310;2023-03-01T03:00:45;75.1;;;32.5;;
26177;SDS011;13924;47.670;10.310;2023-03-01T03:15:49;80.7;;;33.7;;
26177;SDS011;13924;47.670;10.310;2023-03-01T03:30:49;92.3;;;38.1;;
26177;SDS011;13924;47.670;10.310;2023-03-01T03:45:48;80.3;;;33.6;;
26177;SDS011;13924;47.670;10.310;2023-03-01T04:00:49;72.5;;;30.5;;
26177;SDS011;13924;47.670;10.310;2023-03-01T04:15:49;70.4;;;30.3;;
26177;SDS011;13924;47.670;10.310;2023-03-01T04:30:49;69.0;;;30.1;;
26177;SDS011;13924;47.670;10.310;2023-03-01T04:45:50;67.2;;;29.5;;
26177;SDS011;13924;47.670;10.310;2023-03-01T05:00:53;65.2;;;28.2;;
26177;SDS011;13924;47.670;10.310;2023-03-01T05:15:54;60.8;;;26.7;;
26177;SDS011;13924;47.670;10.310;2023-03-01T05:30:52;61.2;;;27.4;;
26177;SDS011;13924;47.670;10.310;2023-03-01T05:45:52;63.4;;;28.8;;
26177;SDS011;13924;47.670;10.310;2023-03-01T05:58:38;65.1;;;29.2;;
26177;SDS011;13924;47.670;10.310;2023-03-01T06:13:41;69.5;;;30.6;;
26177;SDS011;13924;47.670;10.310;2023-03-01T06:28:39;71.4;;;30.7;;
26177;SDS011;13924;47.670;10.310;2023-03-01T06:43:41;67.7;;;28.9;;
26177;SDS011;13924;47.670;10.310;2023-03-01T06:58:44;72.3;;;31.8;;
26177;SDS011;13924;47.670;10.310;2023-03-01T07:13:42;68.0;;;29.7;;
26177;SDS011;13924;47.670;10.310;2023-03-01T07:28:44;71.5;;;29.6;;
26177;SDS011;13924;47.670;10.310;2023-03-01T07:43:44;77.8;;;30.1;;
26177;SDS011;13924;47.670;10.310;2023-03-01T07:58:45;76.2;;;29.5;;
26177;SDS011;13924;47.670;10.310;2023-03-01T08:13:46;72.3;;;28.3;;
26177;SDS011;13924;47.670;10.310;2023-03-01T08:28:46;62.5;;;26.4;;
26177;SDS011;13924;47.670;10.310;2023-03-01T08:43:50;71.2;;;27.7;;
26177;SDS011;13924;47.670;10.310;2023-03-01T08:58:47;62.1;;;27.6;;
26177;SDS011;13924;47.670;10.310;2023-03-01T09:13:48;64.1;;;26.8;;
26177;SDS011;13924;47.670;10.310;2023-03-01T09:28:48;60.7;;;28.1;;
26177;SDS011;13924;47.670;10.310;2023-03-01T09:43:49;59.1;;;27.4;;
26177;SDS011;13924;47.670;10.310;2023-03-01T09:58:51;60.2;;;28.7;;
26177;SDS011;13924;47.670;10.310;2023-03-01T10:13:52;58.0;;;26.3;;
26177;SDS011;13924;47.670;10.310;2023-03-01T10:28:58;56.3;;;27.2;;
26177;SDS011;13924;47.670;10.310;2023-03-01T10:43:52;58.0;;;27.8;;
26177;SDS011;13924;47.670;10.310;2023-03-01T10:59:00;55.6;;;27.4;;
26177;SDS011;13924;47.670;10.310;2023-03-01T11:28:54;54.5;;;28.0;;
26177;SDS011;13924;47.670;10.310;2023-03-01T11:44:11;62.6;;;28.4;;
26177;SDS011;13924;47.670;10.310;2023-03-01T11:59:02;55.3;;;27.8;;
26177;SDS011;13924;47.670;10.310;2023-03-01T12:14:17;55.4;;;26.4;;
26177;SDS011;13924;47.670;10.310;2023-03-01T12:29:01;46.5;;;24.4;;
26177;SDS011;13924;47.670;10.310;2023-03-01T12:44:00;51.0;;;26.3;;
26177;SDS011;13924;47.670;10.310;2023-03-01T12:59:00;51.5;;;26.3;;
26177;SDS011;13924;47.670;10.310;2023-03-01T13:14:33;56.1;;;25.5;;
26177;SDS011;13924;47.670;10.310;2023-03-01T13:28:59;55.5;;;27.6;;
26177;SDS011;13924;47.670;10.310;2023-03-01T13:44:12;56.1;;;27.2;;
26177;SDS011;13924;47.670;10.310;2023-03-01T13:59:02;57.8;;;26.3;;
26177;SDS011;13924;47.670;10.310;2023-03-01T14:14:06;54.9;;;26.6;;
26177;SDS011;13924;47.670;10.310;2023-03-01T14:29:01;60.5;;;26.7;;
26177;SDS011;13924;47.670;10.310;2023-03-01T14:44:03;57.2;;;27.4;;
26177;SDS011;13924;47.670;10.310;2023-03-01T14:59:02;61.0;;;28.0;;
26177;SDS011;13924;47.670;10.310;2023-03-01T15:14:05;58.6;;;27.7;;
26177;SDS011;13924;47.670;10.310;2023-03-01T15:29:05;61.6;;;27.8;;
26177;SDS011;13924;47.670;10.310;2023-03-01T15:44:15;68.6;;;30.1;;
26177;SDS011;13924;47.670;10.310;2023-03-01T15:59:04;74.7;;;31.8;;
26177;SDS011;13924;47.670;10.310;2023-03-01T16:14:06;69.9;;;29.6;;
26177;SDS011;13924;47.670;10.310;2023-03-01T16:29:08;72.1;;;29.7;;
26177;SDS011;13924;47.670;10.310;2023-03-01T16:44:10;75.9;;;30.8;;
26177;SDS011;13924;47.670;10.310;2023-03-01T16:59:09;70.9;;;29.4;;
26177;SDS011;13924;47.670;10.310;2023-03-01T17:14:08;83.3;;;33.7;;
26177;SDS011;13924;47.670;10.310;2023-03-01T17:29:09;87.8;;;34.2;;
26177;SDS011;13924;47.670;10.310;2023-03-01T17:44:09;64.9;;;29.0;;
26177;SDS011;13924;47.670;10.310;2023-03-01T17:59:11;68.0;;;30.1;;
26177;SDS011;13924;47.670;10.310;2023-03-01T18:14:12;72.6;;;30.8;;
26177;SDS011;13924;47.670;10.310;2023-03-01T18:29:13;78.7;;;33.8;;
26177;SDS011;13924;47.670;10.310;2023-03-01T18:44:25;81.0;;;33.2;;
26177;SDS011;13924;47.670;10.310;2023-03-01T18:59:13;84.0;;;36.0;;
26177;SDS011;13924;47.670;10.310;2023-03-01T19:14:15;97.3;;;41.6;;
26177;SDS011;13924;47.670;10.310;2023-03-01T19:29:16;88.9;;;37.3;;
26177;SDS011;13924;47.670;10.310;2023-03-01T19:44:26;91.8;;;38.0;;
26177;SDS011;13924;47.670;10.310;2023-03-01T19:59:15;91.3;;;38.4;;
26177;SDS011;13924;47.670;10.310;2023-03-01T20:14:43;93.4;;;37.8;;
26177;SDS011;13924;47.670;10.310;2023-03-01T20:29:22;94.4;;;40.6;;
26177;SDS011;13924;47.670;10.310;2023-03-01T20:44:48;105.2;;;44.2;;
26177;SDS011;13924;47.670;10.310;2023-03-01T20:59:33;115.2;;;47.9;;
26177;SDS011;13924;47.670;10.310;2023-03-01T21:14:17;98.0;;;40.4;;
26177;SDS011;13924;47.670;10.310;2023-03-01T21:29:19;106.3;;;44.6;;
26177;SDS011;13924;47.670;10.310;2023-03-01T21:44:23;100.2;;;41.6;;
26177;SDS011;13924;47.670;10.310;2023-03-01T21:59:23;102.7;;;41.8;;
26177;SDS011;13924;47.670;10.310;2023-03-01T22:14:24;109.9;;;43.5;;
26177;SDS011;13924;47.670;10.310;2023-03-01T22:29:22;108.4;;;44.8;;
26177;SDS011;13924;47.670;10.310;2023-03-01T22:44:23;112.2;;;46.1;;
26177;SDS011;13924;47.670;10.310;2023-03-01T22:59:24;115.0;;;45.9;;
26177;SDS011;13924;47.670;10.310;2023-03-01T23:00:49;114.5;;;48.8;;
26177;SDS011;13924;47.670;10.310;2023-03-01T23:15:35;107.7;;;44.8;;
26177;SDS011;13924;47.670;10.310;2023-03-01T23:30:35;113.7;;;45.7;;
26177;SDS011;13924;47.670;10.310;2023-03-01T23:45:37;109.9;;;44.4;;
